<?xml version="1.0" encoding="UTF-8" standalone="no" ?>
<gpx xmlns="http://www.topografix.com/GPX/1/1" xmlns:xsi="http://www.w3.org/2001/XMLSchema-instance" xsi:schemaLocation="http://www.topografix.com/GPX/1/1 http://www.topografix.com/GPX/1/1/gpx.xsd" version="1.1" creator="VisuGPX - https://www.visugpx.com">
  <metadata>
    <name>rando les dagueys aux billaux 5.75 km</name>
    <desc><![CDATA[agréable rando route et autour du lac]]></desc>
  </metadata>
  <trk>
    <name><![CDATA[rando les dagueys lac aux billaux 6 km]]></name>
    <trkseg>
      <trkpt lat="44.94739" lon="-0.24448">
        <ele>4</ele>
        <time>2016-01-28T10:02:09Z</time>
      </trkpt>
      <trkpt lat="44.94712" lon="-0.24438">
        <ele>4</ele>
        <time>2016-01-28T10:04:09Z</time>
      </trkpt>
      <trkpt lat="44.94665" lon="-0.24381">
        <ele>4</ele>
        <time>2016-01-28T10:06:09Z</time>
      </trkpt>
      <trkpt lat="44.94653" lon="-0.2435">
        <ele>3</ele>
        <time>2016-01-28T10:08:09Z</time>
      </trkpt>
      <trkpt lat="44.94638" lon="-0.24324">
        <ele>3</ele>
        <time>2016-01-28T10:10:09Z</time>
      </trkpt>
      <trkpt lat="44.94627" lon="-0.24292">
        <ele>4</ele>
        <time>2016-01-28T10:12:09Z</time>
      </trkpt>
      <trkpt lat="44.94625" lon="-0.24258">
        <ele>5</ele>
        <time>2016-01-28T10:14:09Z</time>
      </trkpt>
      <trkpt lat="44.94612" lon="-0.24229">
        <ele>6</ele>
        <time>2016-01-28T10:16:09Z</time>
      </trkpt>
      <trkpt lat="44.94596" lon="-0.24208">
        <ele>5</ele>
        <time>2016-01-28T10:18:09Z</time>
      </trkpt>
      <trkpt lat="44.94582" lon="-0.24187">
        <ele>5</ele>
        <time>2016-01-28T10:20:09Z</time>
      </trkpt>
      <trkpt lat="44.94567" lon="-0.24163">
        <ele>6</ele>
        <time>2016-01-28T10:22:09Z</time>
      </trkpt>
      <trkpt lat="44.94548" lon="-0.24144">
        <ele>6</ele>
        <time>2016-01-28T10:24:09Z</time>
      </trkpt>
      <trkpt lat="44.94527" lon="-0.24077">
        <ele>6</ele>
        <time>2016-01-28T10:26:09Z</time>
      </trkpt>
      <trkpt lat="44.94519" lon="-0.24043">
        <ele>6</ele>
        <time>2016-01-28T10:28:09Z</time>
      </trkpt>
      <trkpt lat="44.94508" lon="-0.24014">
        <ele>6</ele>
        <time>2016-01-28T10:30:09Z</time>
      </trkpt>
      <trkpt lat="44.94487" lon="-0.23998">
        <ele>6</ele>
        <time>2016-01-28T10:32:09Z</time>
      </trkpt>
      <trkpt lat="44.94462" lon="-0.24008">
        <ele>7</ele>
        <time>2016-01-28T10:34:09Z</time>
      </trkpt>
      <trkpt lat="44.94415" lon="-0.24034">
        <ele>6</ele>
        <time>2016-01-28T10:36:09Z</time>
      </trkpt>
      <trkpt lat="44.94391" lon="-0.24039">
        <ele>6</ele>
        <time>2016-01-28T10:38:09Z</time>
      </trkpt>
      <trkpt lat="44.9437" lon="-0.24052">
        <ele>6</ele>
        <time>2016-01-28T10:40:09Z</time>
      </trkpt>
      <trkpt lat="44.94343" lon="-0.24065">
        <ele>6</ele>
        <time>2016-01-28T10:42:09Z</time>
      </trkpt>
      <trkpt lat="44.94319" lon="-0.24082">
        <ele>5</ele>
        <time>2016-01-28T10:44:09Z</time>
      </trkpt>
      <trkpt lat="44.94278" lon="-0.24118">
        <ele>5</ele>
        <time>2016-01-28T10:46:09Z</time>
      </trkpt>
      <trkpt lat="44.94238" lon="-0.24149">
        <ele>5</ele>
        <time>2016-01-28T10:48:09Z</time>
      </trkpt>
      <trkpt lat="44.94222" lon="-0.24158">
        <ele>5</ele>
        <time>2016-01-28T10:50:09Z</time>
      </trkpt>
      <trkpt lat="44.94203" lon="-0.24182">
        <ele>4</ele>
        <time>2016-01-28T10:52:09Z</time>
      </trkpt>
      <trkpt lat="44.94165" lon="-0.24224">
        <ele>4</ele>
        <time>2016-01-28T10:54:09Z</time>
      </trkpt>
      <trkpt lat="44.94145" lon="-0.2425">
        <ele>3</ele>
        <time>2016-01-28T10:56:09Z</time>
      </trkpt>
      <trkpt lat="44.94127" lon="-0.2427">
        <ele>3</ele>
        <time>2016-01-28T10:58:09Z</time>
      </trkpt>
      <trkpt lat="44.94107" lon="-0.24287">
        <ele>4</ele>
        <time>2016-01-28T11:00:09Z</time>
      </trkpt>
      <trkpt lat="44.94083" lon="-0.24293">
        <ele>4</ele>
        <time>2016-01-28T11:02:09Z</time>
      </trkpt>
      <trkpt lat="44.94038" lon="-0.24323">
        <ele>5</ele>
        <time>2016-01-28T11:04:09Z</time>
      </trkpt>
      <trkpt lat="44.94018" lon="-0.24345">
        <ele>4</ele>
        <time>2016-01-28T11:06:09Z</time>
      </trkpt>
      <trkpt lat="44.93972" lon="-0.24372">
        <ele>4</ele>
        <time>2016-01-28T11:08:09Z</time>
      </trkpt>
      <trkpt lat="44.9393" lon="-0.24413">
        <ele>3</ele>
        <time>2016-01-28T11:10:09Z</time>
      </trkpt>
      <trkpt lat="44.93907" lon="-0.24409">
        <ele>3</ele>
        <time>2016-01-28T11:12:09Z</time>
      </trkpt>
      <trkpt lat="44.93885" lon="-0.24425">
        <ele>4</ele>
        <time>2016-01-28T11:14:09Z</time>
      </trkpt>
      <trkpt lat="44.93862" lon="-0.24436">
        <ele>4</ele>
        <time>2016-01-28T11:16:09Z</time>
      </trkpt>
      <trkpt lat="44.93841" lon="-0.24459">
        <ele>3</ele>
        <time>2016-01-28T11:18:09Z</time>
      </trkpt>
      <trkpt lat="44.93817" lon="-0.2447">
        <ele>4</ele>
        <time>2016-01-28T11:20:09Z</time>
      </trkpt>
      <trkpt lat="44.93792" lon="-0.2448">
        <ele>4</ele>
        <time>2016-01-28T11:22:09Z</time>
      </trkpt>
      <trkpt lat="44.93768" lon="-0.24496">
        <ele>4</ele>
        <time>2016-01-28T11:24:09Z</time>
      </trkpt>
      <trkpt lat="44.93746" lon="-0.24513">
        <ele>5</ele>
        <time>2016-01-28T11:26:09Z</time>
      </trkpt>
      <trkpt lat="44.93753" lon="-0.24538">
        <ele>4</ele>
        <time>2016-01-28T11:28:09Z</time>
      </trkpt>
      <trkpt lat="44.93769" lon="-0.24561">
        <ele>3</ele>
        <time>2016-01-28T11:30:09Z</time>
      </trkpt>
      <trkpt lat="44.93763" lon="-0.24591">
        <ele>3</ele>
        <time>2016-01-28T11:32:09Z</time>
      </trkpt>
      <trkpt lat="44.93763" lon="-0.24629">
        <ele>2</ele>
        <time>2016-01-28T11:34:09Z</time>
      </trkpt>
      <trkpt lat="44.9375" lon="-0.24657">
        <ele>2</ele>
        <time>2016-01-28T11:36:09Z</time>
      </trkpt>
      <trkpt lat="44.93612" lon="-0.24706">
        <ele>4</ele>
        <time>2016-01-28T11:38:09Z</time>
      </trkpt>
      <trkpt lat="44.93585" lon="-0.24713">
        <ele>5</ele>
        <time>2016-01-28T11:40:09Z</time>
      </trkpt>
      <trkpt lat="44.9356" lon="-0.24727">
        <ele>6</ele>
        <time>2016-01-28T11:42:09Z</time>
      </trkpt>
      <trkpt lat="44.93534" lon="-0.24738">
        <ele>5</ele>
        <time>2016-01-28T11:44:09Z</time>
      </trkpt>
      <trkpt lat="44.93511" lon="-0.24738">
        <ele>5</ele>
        <time>2016-01-28T11:46:09Z</time>
      </trkpt>
      <trkpt lat="44.93493" lon="-0.24747">
        <ele>4</ele>
        <time>2016-01-28T11:48:09Z</time>
      </trkpt>
      <trkpt lat="44.93468" lon="-0.24744">
        <ele>4</ele>
        <time>2016-01-28T11:50:09Z</time>
      </trkpt>
      <trkpt lat="44.9344" lon="-0.24745">
        <ele>4</ele>
        <time>2016-01-28T11:52:09Z</time>
      </trkpt>
      <trkpt lat="44.93412" lon="-0.24742">
        <ele>4</ele>
        <time>2016-01-28T11:54:09Z</time>
      </trkpt>
      <trkpt lat="44.9336" lon="-0.24736">
        <ele>4</ele>
        <time>2016-01-28T11:56:09Z</time>
      </trkpt>
      <trkpt lat="44.93333" lon="-0.2473">
        <ele>4</ele>
        <time>2016-01-28T11:58:09Z</time>
      </trkpt>
      <trkpt lat="44.93307" lon="-0.24726">
        <ele>4</ele>
        <time>2016-01-28T12:00:09Z</time>
      </trkpt>
      <trkpt lat="44.93282" lon="-0.24724">
        <ele>4</ele>
        <time>2016-01-28T12:02:09Z</time>
      </trkpt>
      <trkpt lat="44.93256" lon="-0.24723">
        <ele>3</ele>
        <time>2016-01-28T12:04:09Z</time>
      </trkpt>
      <trkpt lat="44.9323" lon="-0.24732">
        <ele>4</ele>
        <time>2016-01-28T12:06:09Z</time>
      </trkpt>
      <trkpt lat="44.93203" lon="-0.24737">
        <ele>4</ele>
        <time>2016-01-28T12:08:09Z</time>
      </trkpt>
      <trkpt lat="44.93177" lon="-0.24742">
        <ele>4</ele>
        <time>2016-01-28T12:10:09Z</time>
      </trkpt>
      <trkpt lat="44.93131" lon="-0.24755">
        <ele>4</ele>
        <time>2016-01-28T12:12:09Z</time>
      </trkpt>
      <trkpt lat="44.93116" lon="-0.24763">
        <ele>4</ele>
        <time>2016-01-28T12:14:09Z</time>
      </trkpt>
      <trkpt lat="44.93045" lon="-0.24773">
        <ele>5</ele>
        <time>2016-01-28T12:16:09Z</time>
      </trkpt>
      <trkpt lat="44.9303" lon="-0.24748">
        <ele>6</ele>
        <time>2016-01-28T12:18:09Z</time>
      </trkpt>
      <trkpt lat="44.93026" lon="-0.24742">
        <ele>6</ele>
        <time>2016-01-28T12:20:09Z</time>
      </trkpt>
      <trkpt lat="44.93029" lon="-0.24772">
        <ele>5</ele>
        <time>2016-01-28T12:22:09Z</time>
      </trkpt>
      <trkpt lat="44.93024" lon="-0.24801">
        <ele>5</ele>
        <time>2016-01-28T12:24:09Z</time>
      </trkpt>
      <trkpt lat="44.93013" lon="-0.24857">
        <ele>5</ele>
        <time>2016-01-28T12:26:09Z</time>
      </trkpt>
      <trkpt lat="44.93007" lon="-0.24884">
        <ele>5</ele>
        <time>2016-01-28T12:28:09Z</time>
      </trkpt>
      <trkpt lat="44.92978" lon="-0.24913">
        <ele>6</ele>
        <time>2016-01-28T12:30:09Z</time>
      </trkpt>
      <trkpt lat="44.92973" lon="-0.24933">
        <ele>6</ele>
        <time>2016-01-28T12:32:09Z</time>
      </trkpt>
      <trkpt lat="44.92971" lon="-0.24961">
        <ele>6</ele>
        <time>2016-01-28T12:34:09Z</time>
      </trkpt>
      <trkpt lat="44.92979" lon="-0.24972">
        <ele>6</ele>
        <time>2016-01-28T12:36:09Z</time>
      </trkpt>
      <trkpt lat="44.92989" lon="-0.24987">
        <ele>5</ele>
        <time>2016-01-28T12:38:09Z</time>
      </trkpt>
      <trkpt lat="44.93006" lon="-0.25001">
        <ele>5</ele>
        <time>2016-01-28T12:40:09Z</time>
      </trkpt>
      <trkpt lat="44.93033" lon="-0.25006">
        <ele>4</ele>
        <time>2016-01-28T12:42:09Z</time>
      </trkpt>
      <trkpt lat="44.93056" lon="-0.25008">
        <ele>4</ele>
        <time>2016-01-28T12:44:09Z</time>
      </trkpt>
      <trkpt lat="44.93076" lon="-0.25005">
        <ele>3</ele>
        <time>2016-01-28T12:46:09Z</time>
      </trkpt>
      <trkpt lat="44.93103" lon="-0.25005">
        <ele>2</ele>
        <time>2016-01-28T12:48:09Z</time>
      </trkpt>
      <trkpt lat="44.93116" lon="-0.25025">
        <ele>2</ele>
        <time>2016-01-28T12:50:09Z</time>
      </trkpt>
      <trkpt lat="44.93126" lon="-0.25054">
        <ele>3</ele>
        <time>2016-01-28T12:52:09Z</time>
      </trkpt>
      <trkpt lat="44.93172" lon="-0.25074">
        <ele>3</ele>
        <time>2016-01-28T12:54:09Z</time>
      </trkpt>
      <trkpt lat="44.93192" lon="-0.25089">
        <ele>4</ele>
        <time>2016-01-28T12:56:09Z</time>
      </trkpt>
      <trkpt lat="44.93216" lon="-0.25094">
        <ele>4</ele>
        <time>2016-01-28T12:58:09Z</time>
      </trkpt>
      <trkpt lat="44.93241" lon="-0.25091">
        <ele>3</ele>
        <time>2016-01-28T13:00:09Z</time>
      </trkpt>
      <trkpt lat="44.9334" lon="-0.25084">
        <ele>4</ele>
        <time>2016-01-28T13:02:09Z</time>
      </trkpt>
      <trkpt lat="44.93389" lon="-0.2508">
        <ele>3.9</ele>
        <time>2016-01-28T13:04:09Z</time>
      </trkpt>
      <trkpt lat="44.93543" lon="-0.25069">
        <ele>3</ele>
        <time>2016-01-28T13:06:09Z</time>
      </trkpt>
      <trkpt lat="44.93647" lon="-0.25059">
        <ele>4</ele>
        <time>2016-01-28T13:08:09Z</time>
      </trkpt>
      <trkpt lat="44.93673" lon="-0.25056">
        <ele>4</ele>
        <time>2016-01-28T13:10:09Z</time>
      </trkpt>
      <trkpt lat="44.93726" lon="-0.25054">
        <ele>4</ele>
        <time>2016-01-28T13:12:09Z</time>
      </trkpt>
      <trkpt lat="44.93832" lon="-0.25043">
        <ele>2</ele>
        <time>2016-01-28T13:14:09Z</time>
      </trkpt>
      <trkpt lat="44.93885" lon="-0.25041">
        <ele>2</ele>
        <time>2016-01-28T13:16:09Z</time>
      </trkpt>
      <trkpt lat="44.93963" lon="-0.25035">
        <ele>2</ele>
        <time>2016-01-28T13:18:09Z</time>
      </trkpt>
      <trkpt lat="44.94043" lon="-0.25032">
        <ele>1</ele>
        <time>2016-01-28T13:20:09Z</time>
      </trkpt>
      <trkpt lat="44.94062" lon="-0.25045">
        <ele>2</ele>
        <time>2016-01-28T13:22:09Z</time>
      </trkpt>
      <trkpt lat="44.94082" lon="-0.2503">
        <ele>1</ele>
        <time>2016-01-28T13:24:09Z</time>
      </trkpt>
      <trkpt lat="44.94215" lon="-0.25019">
        <ele>4</ele>
        <time>2016-01-28T13:26:09Z</time>
      </trkpt>
      <trkpt lat="44.94241" lon="-0.25019">
        <ele>5</ele>
        <time>2016-01-28T13:28:09Z</time>
      </trkpt>
      <trkpt lat="44.94292" lon="-0.25015">
        <ele>5</ele>
        <time>2016-01-28T13:30:09Z</time>
      </trkpt>
      <trkpt lat="44.94318" lon="-0.25014">
        <ele>4</ele>
        <time>2016-01-28T13:32:09Z</time>
      </trkpt>
      <trkpt lat="44.94346" lon="-0.2501">
        <ele>4</ele>
        <time>2016-01-28T13:34:09Z</time>
      </trkpt>
      <trkpt lat="44.94488" lon="-0.24998">
        <ele>3.9</ele>
        <time>2016-01-28T13:36:09Z</time>
      </trkpt>
      <trkpt lat="44.94515" lon="-0.24998">
        <ele>3.9</ele>
        <time>2016-01-28T13:38:09Z</time>
      </trkpt>
      <trkpt lat="44.94544" lon="-0.24995">
        <ele>1</ele>
        <time>2016-01-28T13:40:09Z</time>
      </trkpt>
      <trkpt lat="44.94574" lon="-0.24993">
        <ele>2</ele>
        <time>2016-01-28T13:42:09Z</time>
      </trkpt>
      <trkpt lat="44.9463" lon="-0.24985">
        <ele>2</ele>
        <time>2016-01-28T13:44:09Z</time>
      </trkpt>
      <trkpt lat="44.94768" lon="-0.24973">
        <ele>3</ele>
        <time>2016-01-28T13:46:09Z</time>
      </trkpt>
      <trkpt lat="44.94852" lon="-0.24969">
        <ele>4</ele>
        <time>2016-01-28T13:48:09Z</time>
      </trkpt>
      <trkpt lat="44.94966" lon="-0.24959">
        <ele>3</ele>
        <time>2016-01-28T13:50:09Z</time>
      </trkpt>
      <trkpt lat="44.94994" lon="-0.24959">
        <ele>2</ele>
        <time>2016-01-28T13:52:09Z</time>
      </trkpt>
      <trkpt lat="44.95049" lon="-0.24957">
        <ele>3</ele>
        <time>2016-01-28T13:54:09Z</time>
      </trkpt>
      <trkpt lat="44.95078" lon="-0.2496">
        <ele>3</ele>
        <time>2016-01-28T13:56:09Z</time>
      </trkpt>
      <trkpt lat="44.95108" lon="-0.24956">
        <ele>3</ele>
        <time>2016-01-28T13:58:09Z</time>
      </trkpt>
      <trkpt lat="44.95132" lon="-0.24948">
        <ele>3</ele>
        <time>2016-01-28T14:00:09Z</time>
      </trkpt>
      <trkpt lat="44.95149" lon="-0.24938">
        <ele>3</ele>
        <time>2016-01-28T14:02:09Z</time>
      </trkpt>
      <trkpt lat="44.95154" lon="-0.24903">
        <ele>2</ele>
        <time>2016-01-28T14:04:09Z</time>
      </trkpt>
      <trkpt lat="44.9515" lon="-0.2483">
        <ele>2</ele>
        <time>2016-01-28T14:06:09Z</time>
      </trkpt>
      <trkpt lat="44.95149" lon="-0.24791">
        <ele>2</ele>
        <time>2016-01-28T14:08:09Z</time>
      </trkpt>
      <trkpt lat="44.95146" lon="-0.24754">
        <ele>2</ele>
        <time>2016-01-28T14:10:09Z</time>
      </trkpt>
      <trkpt lat="44.95141" lon="-0.24717">
        <ele>3</ele>
        <time>2016-01-28T14:12:09Z</time>
      </trkpt>
      <trkpt lat="44.95114" lon="-0.24648">
        <ele>4</ele>
        <time>2016-01-28T14:14:09Z</time>
      </trkpt>
      <trkpt lat="44.95104" lon="-0.24614">
        <ele>4</ele>
        <time>2016-01-28T14:16:09Z</time>
      </trkpt>
      <trkpt lat="44.95094" lon="-0.24575">
        <ele>5</ele>
        <time>2016-01-28T14:18:09Z</time>
      </trkpt>
      <trkpt lat="44.9508" lon="-0.24541">
        <ele>4</ele>
        <time>2016-01-28T14:20:09Z</time>
      </trkpt>
      <trkpt lat="44.95063" lon="-0.24509">
        <ele>3</ele>
        <time>2016-01-28T14:22:09Z</time>
      </trkpt>
      <trkpt lat="44.95042" lon="-0.24477">
        <ele>3</ele>
        <time>2016-01-28T14:24:09Z</time>
      </trkpt>
      <trkpt lat="44.9502" lon="-0.24451">
        <ele>4</ele>
        <time>2016-01-28T14:26:09Z</time>
      </trkpt>
      <trkpt lat="44.94995" lon="-0.24432">
        <ele>4</ele>
        <time>2016-01-28T14:28:09Z</time>
      </trkpt>
      <trkpt lat="44.94969" lon="-0.24421">
        <ele>4</ele>
        <time>2016-01-28T14:30:09Z</time>
      </trkpt>
      <trkpt lat="44.94942" lon="-0.24411">
        <ele>5</ele>
        <time>2016-01-28T14:32:09Z</time>
      </trkpt>
      <trkpt lat="44.94916" lon="-0.24412">
        <ele>5</ele>
        <time>2016-01-28T14:34:09Z</time>
      </trkpt>
      <trkpt lat="44.94889" lon="-0.24417">
        <ele>4</ele>
        <time>2016-01-28T14:36:09Z</time>
      </trkpt>
      <trkpt lat="44.94862" lon="-0.24419">
        <ele>4</ele>
        <time>2016-01-28T14:38:09Z</time>
      </trkpt>
      <trkpt lat="44.94838" lon="-0.24428">
        <ele>4</ele>
        <time>2016-01-28T14:40:09Z</time>
      </trkpt>
      <trkpt lat="44.94815" lon="-0.24429">
        <ele>4</ele>
        <time>2016-01-28T14:42:09Z</time>
      </trkpt>
      <trkpt lat="44.94792" lon="-0.24419">
        <ele>4</ele>
        <time>2016-01-28T14:44:09Z</time>
      </trkpt>
      <trkpt lat="44.94776" lon="-0.24423">
        <ele>4</ele>
        <time>2016-01-28T14:46:09Z</time>
      </trkpt>
      <trkpt lat="44.94759" lon="-0.24433">
        <ele>4</ele>
        <time>2016-01-28T14:48:09Z</time>
      </trkpt>
      <trkpt lat="44.94753" lon="-0.24435">
        <ele>4</ele>
        <time>2016-01-28T14:50:09Z</time>
      </trkpt>
    </trkseg>
  </trk>
</gpx>